sensor_id;sensor_type;location;lat;lon;timestamp;pressure;altitude;pressure_sealevel;temperature;humidity
50226;BME280;36113;50.742;6.432;2023-02-25T00:00:04;112741.81;;;-145.50;100.00
50226;BME280;36113;50.742;6.432;2023-02-25T00:02:45;112741.81;;;-145.50;100.00
50226;BME280;36113;50.742;6.432;2023-02-25T00:05:11;112741.81;;;-145.50;100.00
50226;BME280;36113;50.742;6.432;2023-02-25T00:07:37;112741.81;;;-145.50;100.00
50226;BME280;36113;50.742;6.432;2023-02-25T00:10:03;112741.81;;;-145.50;99.72
50226;BME280;36113;50.742;6.432;2023-02-25T00:12:29;112741.81;;;-145.50;99.78
50226;BME280;36113;50.742;6.432;2023-02-25T00:14:54;112741.81;;;-145.50;99.49
50226;BME280;36113;50.742;6.432;2023-02-25T00:17:20;112741.81;;;-145.50;99.63
50226;BME280;36113;50.742;6.432;2023-02-25T00:19:46;112741.81;;;-145.50;99.83
50226;BME280;36113;50.742;6.432;2023-02-25T00:22:11;112741.81;;;-145.50;99.63
50226;BME280;36113;50.742;6.432;2023-02-25T00:24:36;112741.81;;;-145.50;99.62
50226;BME280;36113;50.742;6.432;2023-02-25T00:27:02;112741.81;;;-145.50;99.65
50226;BME280;36113;50.742;6.432;2023-02-25T00:29:28;112741.81;;;-145.50;100.00
50226;BME280;36113;50.742;6.432;2023-02-25T00:31:53;112741.81;;;-145.50;100.00
50226;BME280;36113;50.742;6.432;2023-02-25T00:34:19;112741.81;;;-145.50;100.00
50226;BME280;36113;50.742;6.432;2023-02-25T00:36:45;112741.81;;;-145.50;100.00
50226;BME280;36113;50.742;6.432;2023-02-25T00:39:10;112741.81;;;-145.50;100.00
50226;BME280;36113;50.742;6.432;2023-02-25T00:41:36;112741.81;;;-145.50;100.00
50226;BME280;36113;50.742;6.432;2023-02-25T00:44:02;112741.81;;;-145.50;100.00
50226;BME280;36113;50.742;6.432;2023-02-25T00:46:29;112741.81;;;-145.50;100.00
50226;BME280;36113;50.742;6.432;2023-02-25T00:48:55;112741.81;;;-145.50;100.00
50226;BME280;36113;50.742;6.432;2023-02-25T00:51:23;112741.81;;;-145.50;99.96
50226;BME280;36113;50.742;6.432;2023-02-25T00:53:51;112741.81;;;-145.50;99.99
50226;BME280;36113;50.742;6.432;2023-02-25T00:56:17;112741.81;;;-145.50;100.00
50226;BME280;36113;50.742;6.432;2023-02-25T00:58:45;112741.81;;;-145.50;100.00
50226;BME280;36113;50.742;6.432;2023-02-25T01:03:47;112741.81;;;-145.50;99.83
50226;BME280;36113;50.742;6.432;2023-02-25T01:06:13;112741.81;;;-145.50;100.00
50226;BME280;36113;50.742;6.432;2023-02-25T01:08:38;112741.81;;;-145.50;99.93
50226;BME280;36113;50.742;6.432;2023-02-25T01:11:22;112741.81;;;-145.50;99.67
50226;BME280;36113;50.742;6.432;2023-02-25T01:13:54;112741.81;;;-145.50;99.34
50226;BME280;36113;50.742;6.432;2023-02-25T01:16:20;112741.81;;;-145.50;99.14
50226;BME280;36113;50.742;6.432;2023-02-25T01:18:46;112741.81;;;-145.50;98.76
50226;BME280;36113;50.742;6.432;2023-02-25T01:21:21;112741.81;;;-145.50;99.03
50226;BME280;36113;50.742;6.432;2023-02-25T01:24:00;112741.81;;;-145.50;99.02
50226;BME280;36113;50.742;6.432;2023-02-25T01:26:27;112741.81;;;-145.50;98.91
50226;BME280;36113;50.742;6.432;2023-02-25T01:28:53;112741.81;;;-145.50;99.31
50226;BME280;36113;50.742;6.432;2023-02-25T01:31:20;112741.81;;;-145.50;99.53
50226;BME280;36113;50.742;6.432;2023-02-25T01:33:59;112741.81;;;-145.50;99.61
50226;BME280;36113;50.742;6.432;2023-02-25T01:36:25;112741.81;;;-145.50;99.53
50226;BME280;36113;50.742;6.432;2023-02-25T01:38:51;112741.81;;;-145.50;99.48
50226;BME280;36113;50.742;6.432;2023-02-25T01:41:17;112741.81;;;-145.50;99.55
50226;BME280;36113;50.742;6.432;2023-02-25T01:43:42;112741.81;;;-145.50;98.90
50226;BME280;36113;50.742;6.432;2023-02-25T01:46:07;112741.81;;;-145.50;99.28
50226;BME280;36113;50.742;6.432;2023-02-25T01:48:39;112741.81;;;-145.50;99.38
50226;BME280;36113;50.742;6.432;2023-02-25T01:51:09;112741.81;;;-145.50;99.80
50226;BME280;36113;50.742;6.432;2023-02-25T01:53:43;112741.81;;;-145.50;99.96
50226;BME280;36113;50.742;6.432;2023-02-25T01:56:15;112741.81;;;-145.50;100.00
50226;BME280;36113;50.742;6.432;2023-02-25T01:58:41;112741.81;;;-145.50;100.00
50226;BME280;36113;50.742;6.432;2023-02-25T02:01:11;112741.81;;;-145.50;100.00
50226;BME280;36113;50.742;6.432;2023-02-25T02:03:39;112741.81;;;-145.50;100.00
50226;BME280;36113;50.742;6.432;2023-02-25T02:06:11;112741.81;;;-145.50;100.00
50226;BME280;36113;50.742;6.432;2023-02-25T02:08:40;112741.81;;;-145.50;100.00
50226;BME280;36113;50.742;6.432;2023-02-25T02:11:06;112741.81;;;-145.50;100.00
50226;BME280;36113;50.742;6.432;2023-02-25T02:13:34;112741.81;;;-145.50;100.00
50226;BME280;36113;50.742;6.432;2023-02-25T02:18:36;112741.81;;;-145.50;100.00
50226;BME280;36113;50.742;6.432;2023-02-25T02:21:19;112741.81;;;-145.50;100.00
50226;BME280;36113;50.742;6.432;2023-02-25T02:24:09;112741.81;;;-145.50;100.00
50226;BME280;36113;50.742;6.432;2023-02-25T02:27:00;112741.81;;;-145.50;100.00
50226;BME280;36113;50.742;6.432;2023-02-25T02:29:48;112741.81;;;-145.50;100.00
50226;BME280;36113;50.742;6.432;2023-02-25T02:35:17;112741.81;;;-145.50;100.00
50226;BME280;36113;50.742;6.432;2023-02-25T02:37:58;112741.81;;;-145.50;100.00
50226;BME280;36113;50.742;6.432;2023-02-25T02:43:43;112741.81;;;-145.50;100.00
50226;BME280;36113;50.742;6.432;2023-02-25T02:46:20;112741.81;;;-145.50;100.00
50226;BME280;36113;50.742;6.432;2023-02-25T02:49:12;112741.81;;;-145.50;100.00
50226;BME280;36113;50.742;6.432;2023-02-25T02:51:48;112741.81;;;-145.50;100.00
50226;BME280;36113;50.742;6.432;2023-02-25T02:54:16;112741.81;;;-145.50;100.00
50226;BME280;36113;50.742;6.432;2023-02-25T02:56:43;112741.81;;;-145.50;100.00
50226;BME280;36113;50.742;6.432;2023-02-25T02:59:16;112741.81;;;-145.50;99.53
50226;BME280;36113;50.742;6.432;2023-02-25T03:02:19;112741.81;;;-145.50;99.33
50226;BME280;36113;50.742;6.432;2023-02-25T03:04:44;112741.81;;;-145.50;99.50
50226;BME280;36113;50.742;6.432;2023-02-25T03:07:13;112741.81;;;-145.50;99.29
50226;BME280;36113;50.742;6.432;2023-02-25T03:09:46;112741.81;;;-145.50;99.23
50226;BME280;36113;50.742;6.432;2023-02-25T03:12:12;112741.81;;;-145.50;98.72
50226;BME280;36113;50.742;6.432;2023-02-25T03:14:37;112741.81;;;-145.50;98.86
50226;BME280;36113;50.742;6.432;2023-02-25T03:17:07;112741.81;;;-145.50;98.95
50226;BME280;36113;50.742;6.432;2023-02-25T03:19:39;112741.81;;;-145.50;98.70
50226;BME280;36113;50.742;6.432;2023-02-25T03:22:09;112741.81;;;-145.50;98.94
50226;BME280;36113;50.742;6.432;2023-02-25T03:27:30;112741.81;;;-145.50;98.84
50226;BME280;36113;50.742;6.432;2023-02-25T03:32:42;112741.81;;;-145.50;98.82
50226;BME280;36113;50.742;6.432;2023-02-25T03:35:11;112741.81;;;-145.50;98.49
50226;BME280;36113;50.742;6.432;2023-02-25T03:37:38;112741.81;;;-145.50;98.48
50226;BME280;36113;50.742;6.432;2023-02-25T03:40:08;112741.81;;;-145.50;98.80
50226;BME280;36113;50.742;6.432;2023-02-25T03:42:42;112741.81;;;-145.50;98.77
50226;BME280;36113;50.742;6.432;2023-02-25T03:45:10;112741.81;;;-145.50;99.09
50226;BME280;36113;50.742;6.432;2023-02-25T03:47:37;112741.81;;;-145.50;98.70
50226;BME280;36113;50.742;6.432;2023-02-25T03:50:13;112741.81;;;-145.50;99.00
50226;BME280;36113;50.742;6.432;2023-02-25T03:52:40;112741.81;;;-145.50;99.14
50226;BME280;36113;50.742;6.432;2023-02-25T03:55:07;112741.81;;;-145.50;98.87
50226;BME280;36113;50.742;6.432;2023-02-25T03:57:39;112741.81;;;-145.50;98.54
50226;BME280;36113;50.742;6.432;2023-02-25T04:00:28;112741.81;;;-145.50;98.31
50226;BME280;36113;50.742;6.432;2023-02-25T04:02:54;112741.81;;;-145.50;98.25
50226;BME280;36113;50.742;6.432;2023-02-25T04:05:21;112741.81;;;-145.50;98.31
50226;BME280;36113;50.742;6.432;2023-02-25T04:07:47;112741.81;;;-145.50;98.25
50226;BME280;36113;50.742;6.432;2023-02-25T04:10:14;112741.81;;;-145.50;98.31
50226;BME280;36113;50.742;6.432;2023-02-25T04:12:40;112741.81;;;-145.50;98.30
50226;BME280;36113;50.742;6.432;2023-02-25T04:15:06;112741.81;;;-145.50;98.25
50226;BME280;36113;50.742;6.432;2023-02-25T04:17:33;112741.81;;;-145.50;98.24
50226;BME280;36113;50.742;6.432;2023-02-25T04:19:58;112741.81;;;-145.50;98.16
50226;BME280;36113;50.742;6.432;2023-02-25T04:22:24;112741.81;;;-145.50;98.27
50226;BME280;36113;50.742;6.432;2023-02-25T04:24:49;112741.81;;;-145.50;99.00
50226;BME280;36113;50.742;6.432;2023-02-25T04:27:15;112741.81;;;-145.50;99.12
50226;BME280;36113;50.742;6.432;2023-02-25T04:29:41;112741.81;;;-145.50;99.33
50226;BME280;36113;50.742;6.432;2023-02-25T04:32:07;112741.81;;;-145.50;99.34
50226;BME280;36113;50.742;6.432;2023-02-25T04:34:32;112741.81;;;-145.50;99.43
50226;BME280;36113;50.742;6.432;2023-02-25T04:36:57;112741.81;;;-145.50;99.09
50226;BME280;36113;50.742;6.432;2023-02-25T04:39:26;112741.81;;;-145.50;99.25
50226;BME280;36113;50.742;6.432;2023-02-25T04:41:51;112741.81;;;-145.50;99.35
50226;BME280;36113;50.742;6.432;2023-02-25T04:44:17;112741.81;;;-145.50;98.86
50226;BME280;36113;50.742;6.432;2023-02-25T04:46:42;112741.81;;;-145.50;98.95
50226;BME280;36113;50.742;6.432;2023-02-25T04:49:08;112741.81;;;-145.50;99.39
50226;BME280;36113;50.742;6.432;2023-02-25T04:51:34;112741.81;;;-145.50;99.56
50226;BME280;36113;50.742;6.432;2023-02-25T04:53:59;112741.81;;;-145.50;99.59
50226;BME280;36113;50.742;6.432;2023-02-25T04:56:25;112741.81;;;-145.50;99.57
50226;BME280;36113;50.742;6.432;2023-02-25T04:58:50;112741.81;;;-145.50;99.33
50226;BME280;36113;50.742;6.432;2023-02-25T05:01:16;112741.81;;;-145.50;99.70
50226;BME280;36113;50.742;6.432;2023-02-25T05:03:42;112741.81;;;-145.50;99.73
50226;BME280;36113;50.742;6.432;2023-02-25T05:06:08;112741.81;;;-145.50;99.80
50226;BME280;36113;50.742;6.432;2023-02-25T05:08:34;112741.81;;;-145.50;99.48
50226;BME280;36113;50.742;6.432;2023-02-25T05:11:00;112741.81;;;-145.50;99.90
50226;BME280;36113;50.742;6.432;2023-02-25T05:13:26;112741.81;;;-145.50;99.76
50226;BME280;36113;50.742;6.432;2023-02-25T05:16:04;112741.81;;;-145.50;99.63
50226;BME280;36113;50.742;6.432;2023-02-25T05:18:30;112741.81;;;-145.50;99.96
50226;BME280;36113;50.742;6.432;2023-02-25T05:20:55;112741.81;;;-145.50;99.42
50226;BME280;36113;50.742;6.432;2023-02-25T05:23:20;112741.81;;;-145.50;99.46
50226;BME280;36113;50.742;6.432;2023-02-25T05:25:46;112741.81;;;-145.50;99.48
50226;BME280;36113;50.742;6.432;2023-02-25T05:28:11;112741.81;;;-145.50;99.45
50226;BME280;36113;50.742;6.432;2023-02-25T05:30:37;112741.81;;;-145.50;99.53
50226;BME280;36113;50.742;6.432;2023-02-25T05:33:04;112741.81;;;-145.50;99.24
50226;BME280;36113;50.742;6.432;2023-02-25T05:35:29;112741.81;;;-145.50;99.46
50226;BME280;36113;50.742;6.432;2023-02-25T05:37:57;112741.81;;;-145.50;99.65
50226;BME280;36113;50.742;6.432;2023-02-25T05:40:22;112741.81;;;-145.50;99.71
50226;BME280;36113;50.742;6.432;2023-02-25T05:42:47;112741.81;;;-145.50;99.54
50226;BME280;36113;50.742;6.432;2023-02-25T05:45:14;112741.81;;;-145.50;99.63
50226;BME280;36113;50.742;6.432;2023-02-25T05:47:40;112741.81;;;-145.50;100.00
50226;BME280;36113;50.742;6.432;2023-02-25T05:50:05;112741.81;;;-145.50;100.00
50226;BME280;36113;50.742;6.432;2023-02-25T05:52:31;112741.81;;;-145.50;100.00
50226;BME280;36113;50.742;6.432;2023-02-25T05:54:56;112741.81;;;-145.50;100.00
50226;BME280;36113;50.742;6.432;2023-02-25T05:57:21;112741.81;;;-145.50;99.92
50226;BME280;36113;50.742;6.432;2023-02-25T05:59:48;112741.81;;;-145.50;100.00
50226;BME280;36113;50.742;6.432;2023-02-25T06:02:13;112741.81;;;-145.50;99.96
50226;BME280;36113;50.742;6.432;2023-02-25T06:04:38;112741.81;;;-145.50;100.00
50226;BME280;36113;50.742;6.432;2023-02-25T06:07:03;112741.81;;;-145.50;100.00
50226;BME280;36113;50.742;6.432;2023-02-25T06:09:29;112741.81;;;-145.50;100.00
50226;BME280;36113;50.742;6.432;2023-02-25T06:11:54;112741.81;;;-145.50;100.00
50226;BME280;36113;50.742;6.432;2023-02-25T06:14:19;112741.81;;;-145.50;99.87
50226;BME280;36113;50.742;6.432;2023-02-25T06:16:45;112741.81;;;-145.50;99.83
50226;BME280;36113;50.742;6.432;2023-02-25T06:19:11;112741.81;;;-145.50;100.00
50226;BME280;36113;50.742;6.432;2023-02-25T06:21:37;112741.81;;;-145.50;100.00
50226;BME280;36113;50.742;6.432;2023-02-25T06:24:03;112741.81;;;-145.50;100.00
50226;BME280;36113;50.742;6.432;2023-02-25T06:26:28;112741.81;;;-145.50;100.00
50226;BME280;36113;50.742;6.432;2023-02-25T06:28:53;112741.81;;;-145.50;100.00
50226;BME280;36113;50.742;6.432;2023-02-25T06:31:21;112741.81;;;-145.50;100.00
50226;BME280;36113;50.742;6.432;2023-02-25T06:33:47;112741.81;;;-145.50;100.00
50226;BME280;36113;50.742;6.432;2023-02-25T06:36:15;112741.81;;;-145.50;100.00
50226;BME280;36113;50.742;6.432;2023-02-25T06:38:41;112741.81;;;-145.50;100.00
50226;BME280;36113;50.742;6.432;2023-02-25T06:41:13;112741.81;;;-145.50;100.00
50226;BME280;36113;50.742;6.432;2023-02-25T06:43:40;112741.81;;;-145.50;100.00
50226;BME280;36113;50.742;6.432;2023-02-25T06:46:06;112741.81;;;-145.50;99.92
50226;BME280;36113;50.742;6.432;2023-02-25T06:48:32;112741.81;;;-145.50;100.00
50226;BME280;36113;50.742;6.432;2023-02-25T06:50:58;112741.81;;;-145.50;100.00
50226;BME280;36113;50.742;6.432;2023-02-25T06:53:23;112741.81;;;-145.50;99.82
50226;BME280;36113;50.742;6.432;2023-02-25T06:55:48;112741.81;;;-145.50;99.83
50226;BME280;36113;50.742;6.432;2023-02-25T06:58:14;112741.81;;;-145.50;99.27
50226;BME280;36113;50.742;6.432;2023-02-25T07:00:39;112741.81;;;-145.50;99.14
50226;BME280;36113;50.742;6.432;2023-02-25T07:03:10;112741.81;;;-145.50;99.29
50226;BME280;36113;50.742;6.432;2023-02-25T07:05:35;112741.81;;;-145.50;99.48
50226;BME280;36113;50.742;6.432;2023-02-25T07:08:00;112741.81;;;-145.50;99.73
50226;BME280;36113;50.742;6.432;2023-02-25T07:10:26;112741.81;;;-145.50;99.81
50226;BME280;36113;50.742;6.432;2023-02-25T07:12:51;112741.81;;;-145.50;99.17
50226;BME280;36113;50.742;6.432;2023-02-25T07:15:18;112741.81;;;-145.50;98.84
50226;BME280;36113;50.742;6.432;2023-02-25T07:17:43;112741.81;;;-145.50;99.14
50226;BME280;36113;50.742;6.432;2023-02-25T07:20:09;112741.81;;;-145.50;98.72
50226;BME280;36113;50.742;6.432;2023-02-25T07:22:34;112741.81;;;-145.50;98.54
50226;BME280;36113;50.742;6.432;2023-02-25T07:25:00;112741.81;;;-145.50;98.86
50226;BME280;36113;50.742;6.432;2023-02-25T07:27:25;112741.81;;;-145.50;98.28
50226;BME280;36113;50.742;6.432;2023-02-25T07:29:51;112741.81;;;-145.50;98.65
50226;BME280;36113;50.742;6.432;2023-02-25T07:32:16;112741.81;;;-145.50;98.35
50226;BME280;36113;50.742;6.432;2023-02-25T07:34:42;112741.81;;;-145.50;97.54
50226;BME280;36113;50.742;6.432;2023-02-25T07:37:07;112741.81;;;-145.50;97.34
50226;BME280;36113;50.742;6.432;2023-02-25T07:39:32;112741.81;;;-145.50;97.04
50226;BME280;36113;50.742;6.432;2023-02-25T07:41:58;112741.81;;;-145.50;96.78
50226;BME280;36113;50.742;6.432;2023-02-25T07:44:23;112741.81;;;-145.50;96.49
50226;BME280;36113;50.742;6.432;2023-02-25T07:46:48;112741.81;;;-145.50;96.04
50226;BME280;36113;50.742;6.432;2023-02-25T07:49:14;112741.81;;;-145.50;95.89
50226;BME280;36113;50.742;6.432;2023-02-25T07:51:39;112741.81;;;-145.50;95.57
50226;BME280;36113;50.742;6.432;2023-02-25T07:54:04;112741.81;;;-145.50;95.14
50226;BME280;36113;50.742;6.432;2023-02-25T07:56:30;112741.81;;;-145.50;94.76
50226;BME280;36113;50.742;6.432;2023-02-25T07:58:56;112741.81;;;-145.50;94.83
50226;BME280;36113;50.742;6.432;2023-02-25T08:01:32;112741.81;;;-145.50;94.78
50226;BME280;36113;50.742;6.432;2023-02-25T08:04:00;112741.81;;;-145.50;94.26
50226;BME280;36113;50.742;6.432;2023-02-25T08:06:28;112741.81;;;-145.50;93.97
50226;BME280;36113;50.742;6.432;2023-02-25T08:08:54;112741.81;;;-145.50;93.75
50226;BME280;36113;50.742;6.432;2023-02-25T08:11:20;112741.81;;;-145.50;93.38
50226;BME280;36113;50.742;6.432;2023-02-25T08:13:46;112741.81;;;-145.50;93.54
50226;BME280;36113;50.742;6.432;2023-02-25T08:16:14;112741.81;;;-145.50;93.67
50226;BME280;36113;50.742;6.432;2023-02-25T08:18:40;112741.81;;;-145.50;93.28
50226;BME280;36113;50.742;6.432;2023-02-25T08:21:07;112741.81;;;-145.50;93.05
50226;BME280;36113;50.742;6.432;2023-02-25T08:23:32;112741.81;;;-145.50;92.99
50226;BME280;36113;50.742;6.432;2023-02-25T08:25:58;112741.81;;;-145.50;92.74
50226;BME280;36113;50.742;6.432;2023-02-25T08:28:25;112741.81;;;-145.50;92.66
50226;BME280;36113;50.742;6.432;2023-02-25T08:30:52;112741.81;;;-145.50;92.78
50226;BME280;36113;50.742;6.432;2023-02-25T08:33:18;112741.81;;;-145.50;92.69
50226;BME280;36113;50.742;6.432;2023-02-25T08:35:44;112741.81;;;-145.50;92.44
50226;BME280;36113;50.742;6.432;2023-02-25T08:38:10;112741.81;;;-145.50;91.49
50226;BME280;36113;50.742;6.432;2023-02-25T08:40:40;112741.81;;;-145.50;91.62
50226;BME280;36113;50.742;6.432;2023-02-25T08:43:06;112741.81;;;-145.50;91.49
50226;BME280;36113;50.742;6.432;2023-02-25T08:45:31;112741.81;;;-145.50;92.21
50226;BME280;36113;50.742;6.432;2023-02-25T08:47:57;112741.81;;;-145.50;92.26
50226;BME280;36113;50.742;6.432;2023-02-25T08:50:22;112741.81;;;-145.50;92.09
50226;BME280;36113;50.742;6.432;2023-02-25T08:52:51;112741.81;;;-145.50;91.99
50226;BME280;36113;50.742;6.432;2023-02-25T08:55:16;112741.81;;;-145.50;92.50
50226;BME280;36113;50.742;6.432;2023-02-25T08:57:42;112741.81;;;-145.50;92.88
50226;BME280;36113;50.742;6.432;2023-02-25T09:00:11;112741.81;;;-145.50;92.13
50226;BME280;36113;50.742;6.432;2023-02-25T09:02:39;112741.81;;;-145.50;91.95
50226;BME280;36113;50.742;6.432;2023-02-25T09:05:05;112741.81;;;-145.50;91.73
50226;BME280;36113;50.742;6.432;2023-02-25T09:07:30;112741.81;;;-145.50;92.26
50226;BME280;36113;50.742;6.432;2023-02-25T09:09:56;112741.81;;;-145.50;91.94
50226;BME280;36113;50.742;6.432;2023-02-25T09:12:21;112741.81;;;-145.50;91.44
50226;BME280;36113;50.742;6.432;2023-02-25T09:14:46;112741.81;;;-145.50;91.26
50226;BME280;36113;50.742;6.432;2023-02-25T09:17:12;112741.81;;;-145.50;91.25
50226;BME280;36113;50.742;6.432;2023-02-25T09:19:37;112741.81;;;-145.50;90.94
50226;BME280;36113;50.742;6.432;2023-02-25T09:22:06;112741.81;;;-145.50;90.63
50226;BME280;36113;50.742;6.432;2023-02-25T09:24:33;112741.81;;;-145.50;90.37
50226;BME280;36113;50.742;6.432;2023-02-25T09:27:00;112741.81;;;-145.50;90.50
50226;BME280;36113;50.742;6.432;2023-02-25T09:29:31;112741.81;;;-145.50;90.50
50226;BME280;36113;50.742;6.432;2023-02-25T09:31:57;112741.81;;;-145.50;90.49
50226;BME280;36113;50.742;6.432;2023-02-25T09:34:22;112741.81;;;-145.50;90.78
50226;BME280;36113;50.742;6.432;2023-02-25T09:36:47;112741.81;;;-145.50;90.47
50226;BME280;36113;50.742;6.432;2023-02-25T09:39:13;112741.81;;;-145.50;91.19
50226;BME280;36113;50.742;6.432;2023-02-25T09:41:58;112741.81;;;-145.50;90.97
50226;BME280;36113;50.742;6.432;2023-02-25T09:44:30;112741.81;;;-145.50;90.23
50226;BME280;36113;50.742;6.432;2023-02-25T09:52:25;112741.81;;;-145.50;89.53
50226;BME280;36113;50.742;6.432;2023-02-25T09:55:02;112741.81;;;-145.50;88.99
50226;BME280;36113;50.742;6.432;2023-02-25T09:57:36;112741.81;;;-145.50;88.11
50226;BME280;36113;50.742;6.432;2023-02-25T10:00:02;112741.81;;;-145.50;88.02
50226;BME280;36113;50.742;6.432;2023-02-25T10:02:39;112741.81;;;-145.50;87.25
50226;BME280;36113;50.742;6.432;2023-02-25T10:05:29;112741.81;;;-145.50;86.27
50226;BME280;36113;50.742;6.432;2023-02-25T10:08:07;112741.81;;;-145.50;86.91
50226;BME280;36113;50.742;6.432;2023-02-25T10:11:02;112741.81;;;-145.50;87.25
50226;BME280;36113;50.742;6.432;2023-02-25T10:18:45;112741.81;;;-145.50;86.48
50226;BME280;36113;50.742;6.432;2023-02-25T10:24:12;112741.81;;;-145.50;87.26
50226;BME280;36113;50.742;6.432;2023-02-25T10:26:45;112741.81;;;-145.50;87.45
50226;BME280;36113;50.742;6.432;2023-02-25T10:29:31;112741.81;;;-145.50;87.41
50226;BME280;36113;50.742;6.432;2023-02-25T10:32:14;112741.81;;;-145.50;87.06
50226;BME280;36113;50.742;6.432;2023-02-25T10:34:40;112741.81;;;-145.50;87.50
50226;BME280;36113;50.742;6.432;2023-02-25T10:37:16;112741.81;;;-145.50;87.55
50226;BME280;36113;50.742;6.432;2023-02-25T10:39:43;112741.81;;;-145.50;87.57
50226;BME280;36113;50.742;6.432;2023-02-25T10:42:13;112741.81;;;-145.50;88.16
50226;BME280;36113;50.742;6.432;2023-02-25T10:44:40;112741.81;;;-145.50;88.10
50226;BME280;36113;50.742;6.432;2023-02-25T10:47:11;112741.81;;;-145.50;87.99
50226;BME280;36113;50.742;6.432;2023-02-25T10:49:39;112741.81;;;-145.50;87.37
50226;BME280;36113;50.742;6.432;2023-02-25T10:52:13;112741.81;;;-145.50;86.94
50226;BME280;36113;50.742;6.432;2023-02-25T10:54:50;112741.81;;;-145.50;85.81
50226;BME280;36113;50.742;6.432;2023-02-25T10:59:44;112741.81;;;-145.50;85.79
50226;BME280;36113;50.742;6.432;2023-02-25T11:02:21;112741.81;;;-145.50;85.38
50226;BME280;36113;50.742;6.432;2023-02-25T11:04:48;112741.81;;;-145.50;84.71
50226;BME280;36113;50.742;6.432;2023-02-25T11:10:18;112741.81;;;-145.50;84.80
50226;BME280;36113;50.742;6.432;2023-02-25T11:12:45;112741.81;;;-145.50;85.38
50226;BME280;36113;50.742;6.432;2023-02-25T11:15:31;112741.81;;;-145.50;84.26
50226;BME280;36113;50.742;6.432;2023-02-25T11:20:30;112741.81;;;-145.50;84.66
50226;BME280;36113;50.742;6.432;2023-02-25T11:22:57;112741.81;;;-145.50;84.64
50226;BME280;36113;50.742;6.432;2023-02-25T11:25:37;112741.81;;;-145.50;83.36
50226;BME280;36113;50.742;6.432;2023-02-25T11:28:05;112741.81;;;-145.50;83.40
50226;BME280;36113;50.742;6.432;2023-02-25T11:30:36;112741.81;;;-145.50;84.25
50226;BME280;36113;50.742;6.432;2023-02-25T11:33:06;112741.81;;;-145.50;83.95
50226;BME280;36113;50.742;6.432;2023-02-25T11:35:36;112741.81;;;-145.50;83.33
50226;BME280;36113;50.742;6.432;2023-02-25T11:38:27;112741.81;;;-145.50;83.51
50226;BME280;36113;50.742;6.432;2023-02-25T11:40:54;112741.81;;;-145.50;85.18
50226;BME280;36113;50.742;6.432;2023-02-25T11:43:24;112741.81;;;-145.50;85.44
50226;BME280;36113;50.742;6.432;2023-02-25T11:45:58;112741.81;;;-145.50;84.87
50226;BME280;36113;50.742;6.432;2023-02-25T11:48:45;112741.81;;;-145.50;84.55
50226;BME280;36113;50.742;6.432;2023-02-25T11:54:35;112741.81;;;-145.50;91.84
50226;BME280;36113;50.742;6.432;2023-02-25T11:57:10;112741.81;;;-145.50;95.84
50226;BME280;36113;50.742;6.432;2023-02-25T11:59:57;112741.81;;;-145.50;98.16
50226;BME280;36113;50.742;6.432;2023-02-25T12:02:50;112741.81;;;-145.50;99.16
50226;BME280;36113;50.742;6.432;2023-02-25T12:11:35;112741.81;;;-145.50;98.69
50226;BME280;36113;50.742;6.432;2023-02-25T12:14:15;112741.81;;;-145.50;99.13
50226;BME280;36113;50.742;6.432;2023-02-25T12:22:44;112741.81;;;-145.50;100.00
50226;BME280;36113;50.742;6.432;2023-02-25T12:27:57;112741.81;;;-145.50;100.00
50226;BME280;36113;50.742;6.432;2023-02-25T12:33:30;112741.81;;;-145.50;100.00
50226;BME280;36113;50.742;6.432;2023-02-25T12:38:37;112741.81;;;-145.50;100.00
50226;BME280;36113;50.742;6.432;2023-02-25T12:41:16;112741.81;;;-145.50;100.00
50226;BME280;36113;50.742;6.432;2023-02-25T12:43:51;112741.81;;;-145.50;100.00
50226;BME280;36113;50.742;6.432;2023-02-25T12:52:38;112741.81;;;-145.50;100.00
50226;BME280;36113;50.742;6.432;2023-02-25T12:55:16;112741.81;;;-145.50;100.00
50226;BME280;36113;50.742;6.432;2023-02-25T13:00:49;112741.81;;;-145.50;99.13
50226;BME280;36113;50.742;6.432;2023-02-25T13:03:34;112741.81;;;-145.50;98.98
50226;BME280;36113;50.742;6.432;2023-02-25T13:06:25;112741.81;;;-145.50;98.51
50226;BME280;36113;50.742;6.432;2023-02-25T13:09:12;112741.81;;;-145.50;99.58
50226;BME280;36113;50.742;6.432;2023-02-25T13:12:24;112741.81;;;-145.50;100.00
50226;BME280;36113;50.742;6.432;2023-02-25T13:15:04;112741.81;;;-145.50;99.15
50226;BME280;36113;50.742;6.432;2023-02-25T13:18:02;112741.81;;;-145.50;98.35
50226;BME280;36113;50.742;6.432;2023-02-25T13:28:36;112741.81;;;-145.50;92.34
50226;BME280;36113;50.742;6.432;2023-02-25T13:39:59;112741.81;;;-145.50;86.91
50226;BME280;36113;50.742;6.432;2023-02-25T13:42:52;112741.81;;;-145.50;81.36
50226;BME280;36113;50.742;6.432;2023-02-25T13:45:32;112741.81;;;-145.50;79.71
50226;BME280;36113;50.742;6.432;2023-02-25T13:48:30;112741.81;;;-145.50;80.49
50226;BME280;36113;50.742;6.432;2023-02-25T13:53:55;112741.81;;;-145.50;79.57
50226;BME280;36113;50.742;6.432;2023-02-25T14:15:50;112741.81;;;-145.50;80.21
50226;BME280;36113;50.742;6.432;2023-02-25T14:24:04;112741.81;;;-145.50;78.43
50226;BME280;36113;50.742;6.432;2023-02-25T14:26:40;112741.81;;;-145.50;79.00
50226;BME280;36113;50.742;6.432;2023-02-25T14:29:20;112741.81;;;-145.50;78.10
50226;BME280;36113;50.742;6.432;2023-02-25T14:40:42;112741.81;;;-145.50;77.37
50226;BME280;36113;50.742;6.432;2023-02-25T14:59:43;112741.81;;;-145.50;75.08
50226;BME280;36113;50.742;6.432;2023-02-25T15:05:03;112741.81;;;-145.50;67.29